Time;durP1;ratioP1;P1;durP2;ratioP2;P2;SDS_P1;SDS_P2;PMS_P1;PMS_P2;Temp;Humidity;BMP_temperature;BMP_pressure;BME280_temperature;BME280_humidity;BME280_pressure;Samples;Min_cycle;Max_cycle;Signal;HPM_P1;HPM_P2
2023/10/13 00:01:59;;;;;;;;;14.00;13.00;;;;;;;;5100085;27;45239;-77
2023/10/13 00:04:31;;;;;;;;;15.00;13.33;;;;;;;;5098202;27;45635;-77
2023/10/13 00:06:56;;;;;;;;;14.67;13.00;;;;;;;;5098297;27;46054;-77
2023/10/13 00:09:25;;;;;;;;;13.00;11.67;;;;;;;;5100154;27;45214;-77
2023/10/13 00:11:52;;;;;;;;;14.33;13.67;;;;;;;;5100218;27;45318;-77
2023/10/13 00:14:17;;;;;;;;;16.00;15.00;;;;;;;;5098909;27;45279;-77
2023/10/13 00:17:00;;;;;;;;;13.67;13.00;;;;;;;;5098516;27;46132;-77
2023/10/13 00:19:27;;;;;;;;;14.00;14.00;;;;;;;;5100111;27;45404;-77
2023/10/13 00:21:55;;;;;;;;;13.00;13.00;;;;;;;;5099955;27;45361;-77
2023/10/13 00:24:23;;;;;;;;;15.67;15.33;;;;;;;;5100204;27;45309;-77
2023/10/13 00:26:49;;;;;;;;;14.00;12.67;;;;;;;;5100010;27;45340;-77
2023/10/13 00:29:18;;;;;;;;;14.67;12.33;;;;;;;;5099910;27;45333;-77
2023/10/13 00:31:43;;;;;;;;;15.00;12.33;;;;;;;;5099795;27;45294;-77
2023/10/13 00:34:20;;;;;;;;;12.00;12.00;;;;;;;;5078171;27;45364;-77
2023/10/13 00:36:48;;;;;;;;;14.33;13.67;;;;;;;;5066317;28;45246;-77
2023/10/13 00:39:15;;;;;;;;;14.67;13.67;;;;;;;;5077379;28;48064;-77
2023/10/13 00:41:58;;;;;;;;;13.67;13.00;;;;;;;;5079235;28;45298;-77
2023/10/13 00:44:41;;;;;;;;;10.33;10.33;;;;;;;;5077646;28;45521;-77
2023/10/13 00:47:09;;;;;;;;;15.00;15.00;;;;;;;;5078659;28;46155;-77
2023/10/13 00:49:39;;;;;;;;;16.33;15.33;;;;;;;;5077772;28;47434;-77
2023/10/13 00:52:05;;;;;;;;;10.33;9.00;;;;;;;;5079144;28;45125;-77
2023/10/13 00:54:30;;;;;;;;;15.67;14.00;;;;;;;;5079377;28;45202;-77
2023/10/13 00:57:04;;;;;;;;;15.33;15.33;;;;;;;;5079295;28;45312;-77
2023/10/13 00:59:33;;;;;;;;;13.33;13.33;;;;;;;;5079135;28;45246;-76
2023/10/13 01:02:08;;;;;;;;;13.33;13.00;;;;;;;;5080186;28;45336;-77
2023/10/13 01:04:33;;;;;;;;;15.00;14.00;;;;;;;;5082849;28;45451;-76
2023/10/13 01:06:59;;;;;;;;;17.00;17.00;;;;;;;;5082228;28;45538;-76
2023/10/13 01:09:24;;;;;;;;;13.67;10.33;;;;;;;;5082622;28;45829;-77
2023/10/13 01:11:54;;;;;;;;;13.00;13.00;;;;;;;;5082715;28;45282;-77
2023/10/13 01:14:20;;;;;;;;;14.00;14.00;;;;;;;;5082687;28;45235;-76
2023/10/13 01:16:45;;;;;;;;;12.00;12.00;;;;;;;;5082306;28;45538;-76
2023/10/13 01:19:12;;;;;;;;;13.00;13.00;;;;;;;;5082357;28;46369;-77
2023/10/13 01:21:40;;;;;;;;;12.67;12.67;;;;;;;;5082281;28;45359;-76
2023/10/13 01:24:07;;;;;;;;;14.67;12.00;;;;;;;;5082638;28;45238;-76
2023/10/13 01:26:38;;;;;;;;;19.00;14.00;;;;;;;;5082216;28;45749;-77
2023/10/13 01:29:03;;;;;;;;;13.33;13.33;;;;;;;;5088690;27;45897;-77
2023/10/13 01:31:29;;;;;;;;;13.00;13.00;;;;;;;;5102350;27;45239;-77
2023/10/13 01:33:58;;;;;;;;;15.00;14.67;;;;;;;;5103028;27;45302;-77
2023/10/13 01:36:23;;;;;;;;;14.67;14.67;;;;;;;;5102477;27;45456;-77
2023/10/13 01:38:49;;;;;;;;;11.67;11.67;;;;;;;;5100864;27;47396;-76
2023/10/13 01:41:15;;;;;;;;;17.33;13.33;;;;;;;;5102765;27;45221;-76
2023/10/13 01:43:40;;;;;;;;;12.67;12.67;;;;;;;;5102700;27;45318;-77
2023/10/13 01:46:05;;;;;;;;;14.00;14.00;;;;;;;;5102197;27;45402;-76
2023/10/13 01:48:38;;;;;;;;;11.33;11.00;;;;;;;;5102356;27;45399;-76
2023/10/13 01:51:05;;;;;;;;;11.33;10.00;;;;;;;;5100910;27;45448;-76
2023/10/13 01:53:30;;;;;;;;;14.33;13.67;;;;;;;;5102560;27;45247;-76
2023/10/13 01:55:57;;;;;;;;;13.67;13.67;;;;;;;;5102240;27;45289;-76
2023/10/13 01:58:23;;;;;;;;;13.67;13.00;;;;;;;;5100731;27;47291;-77
2023/10/13 02:00:48;;;;;;;;;16.33;13.67;;;;;;;;5102193;27;45280;-76
2023/10/13 02:03:16;;;;;;;;;15.00;13.00;;;;;;;;5100847;27;45397;-76
2023/10/13 02:05:48;;;;;;;;;14.67;13.00;;;;;;;;5102111;27;45317;-76
2023/10/13 02:08:22;;;;;;;;;14.00;11.33;;;;;;;;5101465;27;45313;-76
2023/10/13 02:10:47;;;;;;;;;11.00;11.00;;;;;;;;5102210;27;45279;-76
2023/10/13 02:13:17;;;;;;;;;15.33;14.67;;;;;;;;5100440;27;45360;-76
2023/10/13 02:15:43;;;;;;;;;16.00;14.67;;;;;;;;5101961;27;45301;-77
2023/10/13 02:18:09;;;;;;;;;14.67;13.00;;;;;;;;5100587;27;47415;-76
2023/10/13 02:20:41;;;;;;;;;15.33;13.00;;;;;;;;5101836;27;45199;-76
2023/10/13 02:23:10;;;;;;;;;14.33;12.33;;;;;;;;5102107;27;45279;-76
2023/10/13 02:25:36;;;;;;;;;13.00;11.00;;;;;;;;5101859;27;45524;-75
2023/10/13 02:28:08;;;;;;;;;15.00;14.67;;;;;;;;5101767;27;46028;-76
2023/10/13 02:30:48;;;;;;;;;14.00;13.00;;;;;;;;5080822;27;45776;-76
2023/10/13 02:33:13;;;;;;;;;16.67;12.00;;;;;;;;5081413;28;45236;-76
2023/10/13 02:35:50;;;;;;;;;13.67;12.33;;;;;;;;5081074;28;45282;-76
2023/10/13 02:38:16;;;;;;;;;12.00;12.00;;;;;;;;5081191;28;45310;-76
2023/10/13 02:40:41;;;;;;;;;14.67;14.00;;;;;;;;5080994;28;45385;-76
2023/10/13 02:43:07;;;;;;;;;12.00;12.00;;;;;;;;5080843;28;45259;-76
2023/10/13 02:45:35;;;;;;;;;13.00;13.00;;;;;;;;5080250;28;45317;-76
2023/10/13 02:48:17;;;;;;;;;13.00;12.33;;;;;;;;5078390;28;48221;-77
2023/10/13 02:50:43;;;;;;;;;12.00;11.33;;;;;;;;5080906;28;45294;-77
2023/10/13 02:53:12;;;;;;;;;9.67;8.00;;;;;;;;5081171;28;45322;-76
2023/10/13 02:55:38;;;;;;;;;13.67;12.00;;;;;;;;5080892;28;45529;-76
2023/10/13 02:58:04;;;;;;;;;13.67;11.00;;;;;;;;5080852;28;45295;-76
2023/10/13 03:00:31;;;;;;;;;11.33;11.00;;;;;;;;5079177;28;45359;-77
2023/10/13 03:02:59;;;;;;;;;10.33;10.33;;;;;;;;5080866;28;45298;-76
2023/10/13 03:05:29;;;;;;;;;13.33;13.33;;;;;;;;5080680;28;45445;-76
2023/10/13 03:07:55;;;;;;;;;13.33;12.00;;;;;;;;5080650;28;46598;-76
2023/10/13 03:10:21;;;;;;;;;11.33;11.33;;;;;;;;5080666;28;45376;-77
2023/10/13 03:12:49;;;;;;;;;12.00;11.00;;;;;;;;5080804;28;45301;-77
2023/10/13 03:15:17;;;;;;;;;14.00;13.00;;;;;;;;5080509;28;45374;-77
2023/10/13 03:17:46;;;;;;;;;14.00;12.00;;;;;;;;5080449;28;45930;-76
2023/10/13 03:20:16;;;;;;;;;12.67;12.67;;;;;;;;5078966;28;45410;-76
2023/10/13 03:22:47;;;;;;;;;13.00;12.00;;;;;;;;5080739;28;45329;-76
2023/10/13 03:25:23;;;;;;;;;15.67;12.67;;;;;;;;5079327;28;45245;-76
2023/10/13 03:30:16;;;;;;;;;13.33;12.00;;;;;;;;5096808;27;45341;-76
2023/10/13 03:32:47;;;;;;;;;11.67;11.67;;;;;;;;5101029;27;45326;-76
2023/10/13 03:35:24;;;;;;;;;14.67;13.67;;;;;;;;5100799;27;45306;-75
2023/10/13 03:37:50;;;;;;;;;13.33;12.00;;;;;;;;5099185;27;48469;-76
2023/10/13 03:45:52;;;;;;;;;14.67;14.00;;;;;;;;5089937;27;45511;-76
2023/10/13 03:51:01;;;;;;;;;15.33;14.67;;;;;;;;5100403;27;45298;-76
2023/10/13 03:53:27;;;;;;;;;17.00;14.33;;;;;;;;5100617;27;45236;-76
2023/10/13 03:56:07;;;;;;;;;13.33;13.33;;;;;;;;5100494;27;45321;-76
2023/10/13 03:58:34;;;;;;;;;15.33;12.67;;;;;;;;5098799;27;48107;-76
2023/10/13 04:00:59;;;;;;;;;14.33;13.00;;;;;;;;5098798;27;45337;-77
2023/10/13 04:03:32;;;;;;;;;14.33;12.00;;;;;;;;5098847;27;45357;-76
2023/10/13 04:06:04;;;;;;;;;15.33;14.33;;;;;;;;5100398;27;45352;-76
2023/10/13 04:27:27;;;;;;;;;14.67;14.67;;;;;;;;5100022;27;45509;-76
2023/10/13 04:32:38;;;;;;;;;17.00;15.00;;;;;;;;5078546;28;45359;-76
2023/10/13 04:35:18;;;;;;;;;16.67;14.00;;;;;;;;5078678;28;45282;-76
2023/10/13 04:38:01;;;;;;;;;17.00;15.33;;;;;;;;5081597;28;45247;-76
2023/10/13 04:40:35;;;;;;;;;15.33;15.00;;;;;;;;5082880;28;46574;-76
2023/10/13 04:43:04;;;;;;;;;18.67;17.67;;;;;;;;5082988;28;45452;-76
2023/10/13 04:48:13;;;;;;;;;17.67;16.67;;;;;;;;5082610;28;45263;-76
2023/10/13 04:50:45;;;;;;;;;15.00;15.00;;;;;;;;5082602;28;46216;-76
2023/10/13 04:53:27;;;;;;;;;18.00;15.00;;;;;;;;5082900;28;45350;-76
2023/10/13 05:01:39;;;;;;;;;20.33;18.00;;;;;;;;5082004;28;46097;-75
2023/10/13 06:31:01;;;;;;;;;21.33;20.33;;;;;;;;5063023;28;45351;-80
2023/10/13 06:33:28;;;;;;;;;20.00;18.33;;;;;;;;5071150;28;45314;-80
2023/10/13 06:35:56;;;;;;;;;20.33;19.67;;;;;;;;5069731;28;45413;-82
2023/10/13 06:38:21;;;;;;;;;22.33;19.33;;;;;;;;5069839;28;48303;-78
2023/10/13 06:40:48;;;;;;;;;19.33;19.33;;;;;;;;5070684;28;45436;-79
2023/10/13 06:43:16;;;;;;;;;18.67;17.00;;;;;;;;5072056;28;45456;-79
2023/10/13 06:45:56;;;;;;;;;19.00;17.67;;;;;;;;5073140;28;45428;-79
2023/10/13 06:49:10;;;;;;;;;;;;;;;;;;;;;
2023/10/13 06:55:01;;;;;;;;;21.33;20.00;;;;;;;;5068094;28;45428;-78
2023/10/13 06:57:33;;;;;;;;;18.67;17.33;;;;;;;;5068213;28;45346;-77
2023/10/13 06:59:58;;;;;;;;;20.00;19.67;;;;;;;;5068411;28;46265;-78
2023/10/13 07:02:23;;;;;;;;;20.00;19.00;;;;;;;;5067899;28;45465;-79
2023/10/13 07:04:56;;;;;;;;;15.33;14.67;;;;;;;;5068306;28;45640;-78
2023/10/13 07:07:23;;;;;;;;;20.00;17.67;;;;;;;;5067919;28;46194;-78
2023/10/13 07:09:58;;;;;;;;;15.67;15.67;;;;;;;;5076933;28;45338;-78
2023/10/13 07:12:26;;;;;;;;;21.33;19.67;;;;;;;;5080473;28;45402;-76
2023/10/13 07:15:10;;;;;;;;;17.33;16.00;;;;;;;;5080671;28;45425;-78
2023/10/13 07:17:40;;;;;;;;;18.00;17.67;;;;;;;;5079132;28;45320;-76
2023/10/13 07:20:15;;;;;;;;;18.67;18.67;;;;;;;;5073477;28;45282;-77
2023/10/13 07:22:45;;;;;;;;;17.33;16.00;;;;;;;;5068772;28;45399;-76
2023/10/13 07:25:23;;;;;;;;;18.00;18.00;;;;;;;;5071010;28;45433;-76
2023/10/13 07:27:49;;;;;;;;;17.67;16.33;;;;;;;;5071769;28;45441;-77
2023/10/13 07:30:14;;;;;;;;;18.00;15.67;;;;;;;;5070925;27;46082;-76
2023/10/13 07:32:45;;;;;;;;;14.67;14.67;;;;;;;;5080532;28;45392;-75
2023/10/13 07:35:10;;;;;;;;;19.00;17.33;;;;;;;;5079060;28;45430;-75
2023/10/13 07:37:36;;;;;;;;;12.00;11.33;;;;;;;;5080125;28;45453;-75
2023/10/13 07:40:11;;;;;;;;;14.67;14.00;;;;;;;;5078624;28;48392;-75
2023/10/13 07:42:40;;;;;;;;;18.67;16.67;;;;;;;;5067999;28;45399;-75
2023/10/13 07:45:06;;;;;;;;;16.67;16.67;;;;;;;;5067947;28;45326;-76
2023/10/13 07:47:32;;;;;;;;;17.00;16.67;;;;;;;;5069460;28;45321;-75
2023/10/13 07:49:58;;;;;;;;;18.67;17.67;;;;;;;;5067175;28;47971;-75
2023/10/13 07:54:55;;;;;;;;;15.67;15.67;;;;;;;;5069071;28;45562;-77
2023/10/13 08:07:01;;;;;;;;;18.67;17.67;;;;;;;;4966490;28;45455;-77
2023/10/13 08:09:40;;;;;;;;;15.33;15.00;;;;;;;;4972425;28;45378;-77
2023/10/13 08:12:07;;;;;;;;;17.33;17.00;;;;;;;;5042763;28;45516;-77
2023/10/13 08:14:33;;;;;;;;;16.00;14.67;;;;;;;;5075029;28;45331;-76
2023/10/13 08:17:04;;;;;;;;;18.00;16.67;;;;;;;;5068093;28;45366;-76
2023/10/13 08:19:39;;;;;;;;;16.67;16.67;;;;;;;;5066886;28;45665;-76
2023/10/13 08:32:36;;;;;;;;;16.00;16.00;;;;;;;;5068443;28;45269;-78
2023/10/13 08:37:35;;;;;;;;;18.67;18.67;;;;;;;;5079204;27;45316;-76
2023/10/13 08:42:52;;;;;;;;;14.00;14.00;;;;;;;;5078931;27;46165;-78
2023/10/13 08:48:13;;;;;;;;;15.33;14.67;;;;;;;;5058890;28;45129;-78
2023/10/13 09:04:32;;;;;;;;;15.67;15.33;;;;;;;;5078915;28;45868;-77
2023/10/13 09:12:19;;;;;;;;;16.33;15.67;;;;;;;;5064513;28;45699;-78
2023/10/13 09:14:56;;;;;;;;;14.00;13.67;;;;;;;;5056749;28;48099;-76
2023/10/13 09:17:47;;;;;;;;;14.33;13.33;;;;;;;;5058512;28;45319;-77
2023/10/13 09:25:34;;;;;;;;;14.67;14.33;;;;;;;;5062140;28;45981;-80
2023/10/13 09:28:00;;;;;;;;;13.33;13.33;;;;;;;;5060516;28;45627;-79
2023/10/13 09:30:28;;;;;;;;;17.67;16.00;;;;;;;;5091238;27;45330;-78
2023/10/13 09:33:08;;;;;;;;;15.33;15.33;;;;;;;;5081483;28;45536;-80
2023/10/13 09:35:36;;;;;;;;;19.00;16.67;;;;;;;;5081292;27;45270;-79
2023/10/13 09:38:02;;;;;;;;;15.00;14.33;;;;;;;;5081403;28;45541;-79
2023/10/13 09:40:46;;;;;;;;;15.00;15.00;;;;;;;;5086254;27;45363;-78
2023/10/13 09:43:14;;;;;;;;;16.00;16.00;;;;;;;;5077804;27;46208;-77
2023/10/13 09:45:43;;;;;;;;;15.67;14.33;;;;;;;;5079433;28;46732;-80
2023/10/13 09:48:16;;;;;;;;;14.67;13.67;;;;;;;;5081664;28;45391;-81
2023/10/13 09:50:44;;;;;;;;;15.00;14.67;;;;;;;;5080872;28;45271;-79
2023/10/13 09:53:13;;;;;;;;;15.00;14.00;;;;;;;;5082086;28;45656;-80
2023/10/13 09:55:44;;;;;;;;;14.00;14.00;;;;;;;;5082162;28;45374;-79
2023/10/13 09:58:11;;;;;;;;;14.33;13.00;;;;;;;;5076718;28;45603;-76
2023/10/13 10:06:13;;;;;;;;;14.67;14.67;;;;;;;;5081541;28;45450;-79
2023/10/13 10:08:48;;;;;;;;;14.00;13.33;;;;;;;;5081662;28;45337;-77
2023/10/13 10:11:25;;;;;;;;;16.00;14.33;;;;;;;;5081501;28;45226;-78
2023/10/13 10:13:57;;;;;;;;;13.67;12.00;;;;;;;;5081351;28;45488;-78
2023/10/13 10:16:27;;;;;;;;;13.00;13.00;;;;;;;;5081325;28;45274;-79
2023/10/13 10:18:59;;;;;;;;;15.33;13.67;;;;;;;;5079909;28;45394;-77
2023/10/13 10:21:32;;;;;;;;;13.33;12.33;;;;;;;;5081555;28;45214;-77
2023/10/13 10:23:57;;;;;;;;;12.33;11.00;;;;;;;;5081414;28;45179;-76
2023/10/13 10:26:25;;;;;;;;;16.67;13.67;;;;;;;;5081209;28;45903;-78
2023/10/13 10:28:50;;;;;;;;;15.00;13.33;;;;;;;;5069457;27;45531;-79
2023/10/13 10:31:19;;;;;;;;;6.33;3.33;;;;;;;;5081259;28;45398;-77
2023/10/13 10:33:46;;;;;;;;;11.00;11.00;;;;;;;;5068980;28;46327;-76
2023/10/13 10:36:14;;;;;;;;;12.33;11.67;;;;;;;;5067430;28;45436;-77
2023/10/13 10:38:52;;;;;;;;;14.67;13.00;;;;;;;;5061028;28;45189;-77
2023/10/13 10:41:25;;;;;;;;;13.67;12.67;;;;;;;;5060822;28;45382;-76
2023/10/13 10:43:51;;;;;;;;;11.67;11.00;;;;;;;;5060615;28;45283;-76
2023/10/13 10:46:25;;;;;;;;;13.67;13.67;;;;;;;;5060258;28;45386;-76
2023/10/13 10:48:56;;;;;;;;;11.00;10.67;;;;;;;;5059230;28;46135;-78
2023/10/13 10:51:21;;;;;;;;;10.67;10.67;;;;;;;;5060643;28;45281;-79
2023/10/13 10:53:49;;;;;;;;;15.00;13.67;;;;;;;;5060817;28;45208;-77
2023/10/13 10:56:23;;;;;;;;;12.67;11.00;;;;;;;;5067122;28;45561;-78
2023/10/13 10:58:55;;;;;;;;;13.00;13.00;;;;;;;;5081014;28;45262;-78
2023/10/13 11:01:24;;;;;;;;;15.00;15.00;;;;;;;;5080295;27;45294;-79
2023/10/13 11:04:08;;;;;;;;;12.00;10.67;;;;;;;;5073001;28;47141;-78
2023/10/13 11:06:45;;;;;;;;;13.67;13.67;;;;;;;;5077196;28;47942;-79
2023/10/13 11:09:31;;;;;;;;;12.33;11.00;;;;;;;;5076251;28;45346;-79
2023/10/13 11:12:15;;;;;;;;;12.33;12.33;;;;;;;;5063215;28;45318;-79
2023/10/13 11:14:48;;;;;;;;;13.75;13.50;;;;;;;;5060378;28;45272;-78
2023/10/13 11:17:21;;;;;;;;;11.00;11.00;;;;;;;;5076861;28;47228;-78
2023/10/13 11:19:46;;;;;;;;;14.00;13.33;;;;;;;;5080399;27;45244;-79
2023/10/13 11:22:42;;;;;;;;;12.00;12.00;;;;;;;;5080414;28;45303;-79
2023/10/13 11:25:10;;;;;;;;;14.00;11.33;;;;;;;;5081286;27;45466;-79
2023/10/13 11:30:20;;;;;;;;;12.33;11.67;;;;;;;;5096498;27;45196;-80
2023/10/13 11:32:46;;;;;;;;;12.00;11.67;;;;;;;;5101035;27;45332;-79
2023/10/13 11:35:20;;;;;;;;;11.67;11.67;;;;;;;;5100345;27;45400;-78
2023/10/13 11:38:13;;;;;;;;;13.33;12.33;;;;;;;;5081871;27;45433;-79
2023/10/13 11:40:50;;;;;;;;;13.33;12.00;;;;;;;;5078178;28;45822;-79
2023/10/13 11:43:24;;;;;;;;;12.00;11.33;;;;;;;;5080770;28;45125;-79
2023/10/13 11:45:55;;;;;;;;;12.67;12.67;;;;;;;;5079206;28;45390;-78
2023/10/13 11:48:34;;;;;;;;;11.67;11.67;;;;;;;;5079841;27;45999;-79
2023/10/13 11:50:59;;;;;;;;;14.00;13.00;;;;;;;;5079644;28;45472;-80
2023/10/13 11:53:27;;;;;;;;;15.67;13.00;;;;;;;;5077101;28;45374;-80
2023/10/13 11:55:52;;;;;;;;;12.33;11.00;;;;;;;;5078077;28;45335;-79
2023/10/13 11:58:18;;;;;;;;;11.75;11.75;;;;;;;;5079502;28;45275;-77
2023/10/13 12:01:19;;;;;;;;;14.50;12.50;;;;;;;;5079922;28;45356;-78
2023/10/13 12:11:48;;;;;;;;;12.75;11.00;;;;;;;;5077543;27;45925;-78
2023/10/13 12:14:19;;;;;;;;;12.33;11.33;;;;;;;;5078032;27;45652;-78
2023/10/13 12:16:51;;;;;;;;;11.00;11.00;;;;;;;;5095236;27;46298;-76
2023/10/13 12:19:23;;;;;;;;;13.25;13.00;;;;;;;;5099571;27;46475;-79
2023/10/13 12:21:55;;;;;;;;;13.33;12.67;;;;;;;;5099263;27;45277;-80
2023/10/13 12:27:01;;;;;;;;;9.50;9.00;;;;;;;;5099620;27;45416;-81
2023/10/13 12:29:30;;;;;;;;;13.25;13.00;;;;;;;;5090226;27;45353;-81
2023/10/13 12:32:08;;;;;;;;;11.50;10.00;;;;;;;;5078842;27;45350;-81
2023/10/13 12:35:16;;;;;;;;;13.00;13.00;;;;;;;;5077883;28;45303;-78
2023/10/13 12:54:05;;;;;;;;;13.33;12.33;;;;;;;;5078779;28;45310;-79
2023/10/13 12:56:30;;;;;;;;;13.33;13.00;;;;;;;;5079264;27;45356;-79
2023/10/13 12:58:56;;;;;;;;;12.33;12.33;;;;;;;;5075192;28;45742;-78
2023/10/13 13:01:22;;;;;;;;;11.00;10.00;;;;;;;;5081695;28;45496;-78
2023/10/13 13:03:49;;;;;;;;;12.00;11.75;;;;;;;;5082494;28;45243;-78
2023/10/13 13:06:18;;;;;;;;;13.33;12.33;;;;;;;;5082841;28;45204;-78
2023/10/13 13:08:44;;;;;;;;;11.75;10.75;;;;;;;;5082577;28;45290;-79
2023/10/13 13:11:10;;;;;;;;;11.00;11.00;;;;;;;;5082129;28;45363;-78
2023/10/13 13:13:35;;;;;;;;;10.75;10.75;;;;;;;;5082615;28;45192;-78
2023/10/13 13:16:00;;;;;;;;;11.25;11.25;;;;;;;;5081071;28;45310;-78
2023/10/13 13:18:25;;;;;;;;;11.33;10.33;;;;;;;;5073422;28;45219;-78
2023/10/13 13:20:54;;;;;;;;;16.00;12.67;;;;;;;;5071066;28;47149;-78
2023/10/13 13:23:19;;;;;;;;;12.75;12.00;;;;;;;;5070088;28;45371;-77
2023/10/13 13:25:45;;;;;;;;;12.25;12.00;;;;;;;;5071378;28;45423;-79
2023/10/13 13:28:11;;;;;;;;;11.50;9.75;;;;;;;;5072319;28;45446;-78
2023/10/13 13:30:37;;;;;;;;;10.25;10.25;;;;;;;;5082647;27;45425;-79
2023/10/13 13:33:12;;;;;;;;;12.75;12.75;;;;;;;;5082320;28;45243;-78
2023/10/13 13:35:38;;;;;;;;;10.75;10.75;;;;;;;;5082495;28;45342;-76
2023/10/13 13:38:09;;;;;;;;;13.00;13.00;;;;;;;;5080680;28;46112;-80
2023/10/13 13:40:38;;;;;;;;;11.25;11.25;;;;;;;;5080873;28;48000;-79
2023/10/13 13:43:03;;;;;;;;;10.00;8.75;;;;;;;;5082428;28;45291;-78
2023/10/13 13:45:28;;;;;;;;;11.50;11.25;;;;;;;;5080649;28;45510;-77
2023/10/13 13:47:54;;;;;;;;;11.75;11.75;;;;;;;;5080837;28;46205;-78
2023/10/13 13:50:25;;;;;;;;;12.00;9.67;;;;;;;;5089830;27;46292;-77
2023/10/13 13:52:52;;;;;;;;;9.75;9.25;;;;;;;;5102148;27;45801;-78
2023/10/13 13:55:17;;;;;;;;;11.25;11.25;;;;;;;;5102068;27;45393;-79
2023/10/13 13:57:43;;;;;;;;;11.75;11.50;;;;;;;;5100463;27;46406;-77
2023/10/13 14:00:16;;;;;;;;;11.25;11.25;;;;;;;;5100353;27;48243;-78
2023/10/13 14:02:46;;;;;;;;;12.50;12.00;;;;;;;;5099916;27;45483;-80
2023/10/13 14:05:15;;;;;;;;;14.33;13.33;;;;;;;;5071573;27;45659;-78
2023/10/13 14:07:40;;;;;;;;;12.00;11.67;;;;;;;;5066679;28;45686;-79
2023/10/13 14:10:06;;;;;;;;;14.33;12.67;;;;;;;;5069338;27;47106;-81
2023/10/13 14:12:43;;;;;;;;;8.00;5.50;;;;;;;;5082962;28;45319;-82
2023/10/13 14:15:19;;;;;;;;;11.25;10.25;;;;;;;;5077188;27;45419;-79
2023/10/13 14:17:46;;;;;;;;;12.75;12.50;;;;;;;;5062727;28;45622;-78
2023/10/13 14:20:18;;;;;;;;;12.33;11.67;;;;;;;;5082355;27;45255;-80
2023/10/13 14:22:47;;;;;;;;;14.00;13.00;;;;;;;;5081417;28;45382;-79
2023/10/13 14:25:14;;;;;;;;;9.25;9.25;;;;;;;;5082398;27;45169;-78
2023/10/13 14:27:39;;;;;;;;;12.33;12.33;;;;;;;;5081384;28;45222;-81
2023/10/13 14:30:04;;;;;;;;;11.00;10.25;;;;;;;;5094313;27;45185;-80
2023/10/13 14:32:30;;;;;;;;;7.25;6.25;;;;;;;;5111391;27;45359;-81
2023/10/13 14:34:56;;;;;;;;;13.33;13.33;;;;;;;;5081173;27;45425;-83
2023/10/13 14:37:29;;;;;;;;;14.00;13.00;;;;;;;;5084509;27;45402;-82
2023/10/13 14:39:59;;;;;;;;;16.67;13.67;;;;;;;;5086999;27;47030;-77
2023/10/13 14:42:25;;;;;;;;;13.67;13.33;;;;;;;;5102571;27;45344;-81
2023/10/13 14:44:55;;;;;;;;;15.33;13.33;;;;;;;;5101659;27;45256;-80
2023/10/13 14:47:24;;;;;;;;;13.67;13.33;;;;;;;;5092708;27;45876;-83
2023/10/13 14:49:49;;;;;;;;;15.67;15.33;;;;;;;;5094074;27;45430;-86
2023/10/13 14:52:17;;;;;;;;;16.33;15.67;;;;;;;;5080386;27;45353;-83
2023/10/13 14:54:42;;;;;;;;;15.33;14.33;;;;;;;;5086119;27;45423;-85
2023/10/13 14:57:08;;;;;;;;;13.67;12.33;;;;;;;;5065151;27;45606;-83
2023/10/13 14:59:33;;;;;;;;;18.67;14.33;;;;;;;;5063789;27;45489;-83
2023/10/13 15:02:01;;;;;;;;;13.33;13.00;;;;;;;;5082515;28;45255;-82
2023/10/13 15:04:28;;;;;;;;;13.67;12.00;;;;;;;;5077001;27;45385;-81
2023/10/13 15:06:53;;;;;;;;;14.33;14.33;;;;;;;;5080386;27;45546;-79
2023/10/13 15:09:23;;;;;;;;;14.00;14.00;;;;;;;;5080737;27;45666;-80
2023/10/13 15:11:48;;;;;;;;;14.33;14.33;;;;;;;;5089184;27;45942;-81
2023/10/13 15:14:13;;;;;;;;;17.00;14.00;;;;;;;;5079480;28;45290;-80
2023/10/13 15:16:39;;;;;;;;;12.67;12.00;;;;;;;;5080807;27;45225;-81
2023/10/13 15:19:06;;;;;;;;;14.00;13.67;;;;;;;;5065059;28;45551;-80
2023/10/13 15:21:34;;;;;;;;;11.00;11.00;;;;;;;;5080520;27;45497;-80
2023/10/13 15:24:03;;;;;;;;;17.67;16.67;;;;;;;;5058092;28;45411;-79
2023/10/13 15:26:29;;;;;;;;;15.67;14.33;;;;;;;;5079177;27;45291;-80
2023/10/13 15:28:55;;;;;;;;;14.67;14.33;;;;;;;;5084597;27;48413;-84
2023/10/13 15:31:41;;;;;;;;;12.67;12.67;;;;;;;;5099220;27;45357;-80
2023/10/13 15:34:13;;;;;;;;;15.00;14.67;;;;;;;;5098738;27;45473;-80
2023/10/13 15:36:39;;;;;;;;;12.00;12.00;;;;;;;;5078450;27;46117;-82
2023/10/13 15:39:08;;;;;;;;;12.67;12.33;;;;;;;;5076751;28;46432;-81
2023/10/13 15:41:33;;;;;;;;;13.00;12.75;;;;;;;;5085418;27;45437;-83
2023/10/13 15:43:58;;;;;;;;;14.67;14.67;;;;;;;;5077256;27;45381;-82
2023/10/13 15:46:24;;;;;;;;;15.33;14.67;;;;;;;;5078222;27;45911;-83
2023/10/13 15:48:49;;;;;;;;;14.00;14.00;;;;;;;;5079470;27;47291;-79
2023/10/13 15:51:16;;;;;;;;;17.00;15.33;;;;;;;;5077736;28;45422;-80
2023/10/13 15:53:43;;;;;;;;;17.33;16.00;;;;;;;;5071328;27;45342;-80
2023/10/13 15:56:14;;;;;;;;;18.67;17.00;;;;;;;;5069557;28;46081;-81
2023/10/13 15:58:46;;;;;;;;;17.33;15.33;;;;;;;;5071985;27;46802;-84
2023/10/13 16:01:15;;;;;;;;;15.00;15.00;;;;;;;;5068257;28;45556;-83
2023/10/13 16:03:43;;;;;;;;;12.00;12.00;;;;;;;;5080470;27;45280;-82
2023/10/13 16:06:09;;;;;;;;;15.00;13.67;;;;;;;;5080429;28;46383;-83
2023/10/13 16:08:38;;;;;;;;;18.33;16.33;;;;;;;;5084290;27;45516;-85
2023/10/13 16:11:07;;;;;;;;;17.00;15.67;;;;;;;;5075227;28;45450;-83
2023/10/13 16:13:32;;;;;;;;;16.33;16.00;;;;;;;;5072428;27;45353;-83
2023/10/13 16:16:00;;;;;;;;;16.33;15.00;;;;;;;;5083277;28;46023;-81
2023/10/13 16:18:25;;;;;;;;;18.00;17.00;;;;;;;;5081783;27;45424;-80
2023/10/13 16:20:50;;;;;;;;;18.67;15.67;;;;;;;;5078884;28;45401;-78
2023/10/13 16:23:17;;;;;;;;;20.67;17.33;;;;;;;;5079906;27;45361;-79
2023/10/13 16:25:43;;;;;;;;;17.33;15.67;;;;;;;;5079313;28;45932;-82
2023/10/13 16:28:11;;;;;;;;;19.00;18.33;;;;;;;;5092573;27;47630;-80
2023/10/13 16:30:37;;;;;;;;;20.00;17.67;;;;;;;;5081474;27;45707;-78
2023/10/13 16:33:02;;;;;;;;;16.33;16.33;;;;;;;;5081974;27;45214;-81
2023/10/13 16:35:33;;;;;;;;;15.33;15.00;;;;;;;;5072171;28;46584;-82
2023/10/13 16:37:58;;;;;;;;;16.67;14.67;;;;;;;;5071654;27;47288;-79
2023/10/13 16:40:24;;;;;;;;;17.33;16.00;;;;;;;;5084463;28;45440;-78
2023/10/13 16:42:52;;;;;;;;;22.00;20.00;;;;;;;;5081956;27;45431;-79
2023/10/13 16:45:20;;;;;;;;;18.67;17.00;;;;;;;;5081199;28;45522;-78
2023/10/13 16:47:46;;;;;;;;;20.33;20.00;;;;;;;;5082610;27;45460;-78
2023/10/13 16:50:11;;;;;;;;;24.33;23.67;;;;;;;;5082390;28;45397;-77
2023/10/13 16:52:36;;;;;;;;;24.33;22.67;;;;;;;;5083472;27;45353;-80
2023/10/13 16:55:03;;;;;;;;;19.33;19.00;;;;;;;;5081296;28;46809;-78
2023/10/13 16:57:28;;;;;;;;;21.67;21.00;;;;;;;;5082454;27;46958;-80
2023/10/13 16:59:53;;;;;;;;;20.33;20.00;;;;;;;;5082635;28;45369;-81
2023/10/13 17:02:19;;;;;;;;;19.00;18.33;;;;;;;;5088200;27;45516;-79
2023/10/13 17:04:44;;;;;;;;;21.00;19.33;;;;;;;;5103291;27;45472;-78
2023/10/13 17:07:09;;;;;;;;;19.00;19.00;;;;;;;;5099560;27;48022;-78
2023/10/13 17:09:34;;;;;;;;;20.00;18.00;;;;;;;;5082750;27;45608;-80
2023/10/13 17:12:00;;;;;;;;;18.67;17.33;;;;;;;;5074691;28;45636;-78
2023/10/13 17:14:26;;;;;;;;;21.33;18.67;;;;;;;;5079593;28;45930;-80
2023/10/13 17:16:51;;;;;;;;;23.67;21.67;;;;;;;;5080815;28;45619;-78
2023/10/13 17:19:16;;;;;;;;;21.00;20.00;;;;;;;;5079509;28;45472;-77
2023/10/13 17:21:44;;;;;;;;;20.00;17.67;;;;;;;;5079193;28;45604;-77
2023/10/13 17:24:11;;;;;;;;;19.67;19.33;;;;;;;;5064690;28;45323;-83
2023/10/13 17:26:36;;;;;;;;;17.67;17.67;;;;;;;;5060836;28;47826;-79
2023/10/13 17:29:08;;;;;;;;;25.67;22.67;;;;;;;;5074846;27;45303;-80
2023/10/13 17:31:34;;;;;;;;;20.00;20.00;;;;;;;;5102684;27;45464;-79
2023/10/13 17:33:59;;;;;;;;;21.33;20.33;;;;;;;;5100912;27;46187;-80
2023/10/13 17:36:29;;;;;;;;;23.33;21.00;;;;;;;;5099454;27;46892;-83
2023/10/13 17:38:54;;;;;;;;;22.33;21.67;;;;;;;;5073405;28;45684;-85
2023/10/13 17:41:20;;;;;;;;;22.33;21.67;;;;;;;;5068706;28;45242;-79
2023/10/13 17:43:46;;;;;;;;;22.33;22.00;;;;;;;;5066815;28;45775;-80
2023/10/13 17:46:12;;;;;;;;;25.67;25.33;;;;;;;;5071201;28;47957;-83
2023/10/13 17:48:38;;;;;;;;;27.33;26.67;;;;;;;;5067860;28;46399;-83
2023/10/13 17:51:10;;;;;;;;;24.33;24.00;;;;;;;;5060499;28;45308;-83
2023/10/13 17:53:39;;;;;;;;;26.00;23.67;;;;;;;;5060632;28;47212;-81
2023/10/13 17:56:09;;;;;;;;;10.00;8.00;;;;;;;;5061718;28;46250;-88
2023/10/13 17:58:35;;;;;;;;;27.67;26.67;;;;;;;;5062520;28;45283;-79
2023/10/13 18:01:04;;;;;;;;;24.00;23.33;;;;;;;;5061534;28;45314;-82
2023/10/13 18:03:29;;;;;;;;;29.33;27.00;;;;;;;;5060316;28;46434;-81
2023/10/13 18:06:01;;;;;;;;;32.00;28.67;;;;;;;;5061263;28;46069;-81
2023/10/13 18:08:27;;;;;;;;;29.00;26.00;;;;;;;;5061901;28;45358;-81
2023/10/13 18:10:54;;;;;;;;;31.00;28.67;;;;;;;;5061574;28;45215;-84
2023/10/13 18:13:19;;;;;;;;;36.33;30.33;;;;;;;;5066244;28;46068;-81